sensor_id;sensor_type;location;lat;lon;timestamp;P1;durP1;ratioP1;P2;durP2;ratioP2
12760;SDS011;6444;49.742;6.114;2024-03-23T00:53:59;21.67;;;13.90;;
12760;SDS011;6444;49.742;6.114;2024-03-23T00:56:26;25.33;;;15.55;;
12760;SDS011;6444;49.742;6.114;2024-03-23T00:58:53;23.35;;;14.87;;
12760;SDS011;6444;49.742;6.114;2024-03-23T01:01:20;20.20;;;13.63;;
12760;SDS011;6444;49.742;6.114;2024-03-23T01:03:46;19.60;;;13.00;;
12760;SDS011;6444;49.742;6.114;2024-03-23T01:06:13;23.95;;;13.62;;
12760;SDS011;6444;49.742;6.114;2024-03-23T01:08:39;23.33;;;14.73;;
12760;SDS011;6444;49.742;6.114;2024-03-23T01:11:06;23.55;;;13.70;;
12760;SDS011;6444;49.742;6.114;2024-03-23T01:13:33;21.52;;;13.45;;
12760;SDS011;6444;49.742;6.114;2024-03-23T01:16:00;22.90;;;12.70;;
12760;SDS011;6444;49.742;6.114;2024-03-23T01:18:27;21.90;;;12.60;;
12760;SDS011;6444;49.742;6.114;2024-03-23T01:20:53;22.25;;;12.37;;
12760;SDS011;6444;49.742;6.114;2024-03-23T01:23:20;22.15;;;12.05;;
12760;SDS011;6444;49.742;6.114;2024-03-23T01:25:53;19.08;;;11.85;;
12760;SDS011;6444;49.742;6.114;2024-03-23T01:28:19;16.45;;;11.10;;
12760;SDS011;6444;49.742;6.114;2024-03-23T01:30:46;18.83;;;11.38;;
12760;SDS011;6444;49.742;6.114;2024-03-23T01:33:13;17.00;;;10.68;;
12760;SDS011;6444;49.742;6.114;2024-03-23T01:35:40;15.60;;;9.97;;
12760;SDS011;6444;49.742;6.114;2024-03-23T01:38:06;10.45;;;6.32;;
12760;SDS011;6444;49.742;6.114;2024-03-23T01:40:33;5.15;;;3.72;;
12760;SDS011;6444;49.742;6.114;2024-03-23T01:43:03;5.27;;;3.73;;
12760;SDS011;6444;49.742;6.114;2024-03-23T01:45:29;6.47;;;3.72;;
12760;SDS011;6444;49.742;6.114;2024-03-23T01:47:56;3.90;;;3.23;;
12760;SDS011;6444;49.742;6.114;2024-03-23T01:50:23;3.77;;;2.23;;
12760;SDS011;6444;49.742;6.114;2024-03-23T01:52:50;2.90;;;1.90;;
12760;SDS011;6444;49.742;6.114;2024-03-23T01:55:16;2.80;;;1.80;;
12760;SDS011;6444;49.742;6.114;2024-03-23T01:57:43;1.27;;;1.17;;
12760;SDS011;6444;49.742;6.114;2024-03-23T02:00:11;1.93;;;1.20;;
12760;SDS011;6444;49.742;6.114;2024-03-23T02:02:47;1.67;;;1.03;;
12760;SDS011;6444;49.742;6.114;2024-03-23T02:05:14;1.20;;;1.10;;
12760;SDS011;6444;49.742;6.114;2024-03-23T02:07:41;1.80;;;1.20;;
12760;SDS011;6444;49.742;6.114;2024-03-23T02:10:07;2.03;;;1.40;;
12760;SDS011;6444;49.742;6.114;2024-03-23T02:12:34;2.20;;;1.20;;
12760;SDS011;6444;49.742;6.114;2024-03-23T02:15:01;1.27;;;1.17;;
12760;SDS011;6444;49.742;6.114;2024-03-23T02:17:29;1.67;;;1.20;;
12760;SDS011;6444;49.742;6.114;2024-03-23T02:19:54;1.07;;;0.97;;
12760;SDS011;6444;49.742;6.114;2024-03-23T02:22:21;1.60;;;1.50;;
12760;SDS011;6444;49.742;6.114;2024-03-23T02:24:47;1.57;;;1.37;;
12760;SDS011;6444;49.742;6.114;2024-03-23T02:27:15;1.40;;;1.30;;
12760;SDS011;6444;49.742;6.114;2024-03-23T02:29:42;1.20;;;1.10;;
12760;SDS011;6444;49.742;6.114;2024-03-23T02:32:08;1.43;;;1.10;;
12760;SDS011;6444;49.742;6.114;2024-03-23T02:34:35;1.00;;;0.90;;
12760;SDS011;6444;49.742;6.114;2024-03-23T02:37:02;1.47;;;1.13;;
12760;SDS011;6444;49.742;6.114;2024-03-23T02:39:29;2.13;;;1.20;;
12760;SDS011;6444;49.742;6.114;2024-03-23T02:41:55;1.53;;;1.23;;
12760;SDS011;6444;49.742;6.114;2024-03-23T02:44:22;1.40;;;1.23;;
12760;SDS011;6444;49.742;6.114;2024-03-23T02:46:49;1.30;;;1.10;;
12760;SDS011;6444;49.742;6.114;2024-03-23T02:49:16;1.70;;;1.13;;
12760;SDS011;6444;49.742;6.114;2024-03-23T02:51:43;1.33;;;1.00;;
12760;SDS011;6444;49.742;6.114;2024-03-23T02:54:09;1.30;;;1.10;;
12760;SDS011;6444;49.742;6.114;2024-03-23T02:56:36;2.60;;;1.40;;
12760;SDS011;6444;49.742;6.114;2024-03-23T02:59:03;2.27;;;1.70;;
12760;SDS011;6444;49.742;6.114;2024-03-23T03:01:30;1.70;;;1.60;;
12760;SDS011;6444;49.742;6.114;2024-03-23T03:03:57;3.33;;;1.50;;
12760;SDS011;6444;49.742;6.114;2024-03-23T03:06:26;2.07;;;1.70;;
12760;SDS011;6444;49.742;6.114;2024-03-23T03:08:54;3.03;;;2.00;;
12760;SDS011;6444;49.742;6.114;2024-03-23T03:11:20;2.10;;;1.77;;
12760;SDS011;6444;49.742;6.114;2024-03-23T03:13:47;2.60;;;1.90;;
12760;SDS011;6444;49.742;6.114;2024-03-23T03:16:13;3.20;;;2.50;;
12760;SDS011;6444;49.742;6.114;2024-03-23T03:18:41;3.40;;;3.07;;
12760;SDS011;6444;49.742;6.114;2024-03-23T03:21:07;2.30;;;2.10;;
12760;SDS011;6444;49.742;6.114;2024-03-23T03:23:37;3.97;;;2.50;;
12760;SDS011;6444;49.742;6.114;2024-03-23T03:26:04;2.70;;;2.20;;
12760;SDS011;6444;49.742;6.114;2024-03-23T03:28:33;2.00;;;1.80;;
12760;SDS011;6444;49.742;6.114;2024-03-23T03:30:59;1.93;;;1.40;;
12760;SDS011;6444;49.742;6.114;2024-03-23T03:33:26;2.33;;;1.50;;
12760;SDS011;6444;49.742;6.114;2024-03-23T03:35:54;2.10;;;1.90;;
12760;SDS011;6444;49.742;6.114;2024-03-23T03:38:20;1.60;;;1.50;;
12760;SDS011;6444;49.742;6.114;2024-03-23T03:40:47;1.83;;;1.40;;
12760;SDS011;6444;49.742;6.114;2024-03-23T03:43:14;1.80;;;1.57;;
12760;SDS011;6444;49.742;6.114;2024-03-23T03:45:41;1.47;;;1.20;;
12760;SDS011;6444;49.742;6.114;2024-03-23T03:48:07;1.97;;;1.30;;
12760;SDS011;6444;49.742;6.114;2024-03-23T03:50:34;1.20;;;1.10;;
12760;SDS011;6444;49.742;6.114;2024-03-23T03:53:01;1.23;;;1.10;;
12760;SDS011;6444;49.742;6.114;2024-03-23T03:55:28;1.37;;;1.00;;
12760;SDS011;6444;49.742;6.114;2024-03-23T03:57:54;2.37;;;1.30;;
12760;SDS011;6444;49.742;6.114;2024-03-23T04:00:22;1.40;;;1.10;;
12760;SDS011;6444;49.742;6.114;2024-03-23T04:02:48;1.80;;;1.40;;
12760;SDS011;6444;49.742;6.114;2024-03-23T04:05:15;2.43;;;1.30;;
12760;SDS011;6444;49.742;6.114;2024-03-23T04:07:42;1.80;;;1.37;;
12760;SDS011;6444;49.742;6.114;2024-03-23T04:10:09;2.43;;;1.53;;
12760;SDS011;6444;49.742;6.114;2024-03-23T04:12:36;3.73;;;1.60;;
12760;SDS011;6444;49.742;6.114;2024-03-23T04:15:03;2.30;;;1.67;;
12760;SDS011;6444;49.742;6.114;2024-03-23T04:17:31;3.40;;;1.90;;
12760;SDS011;6444;49.742;6.114;2024-03-23T04:19:57;3.87;;;2.00;;
12760;SDS011;6444;49.742;6.114;2024-03-23T04:22:24;6.37;;;2.20;;
12760;SDS011;6444;49.742;6.114;2024-03-23T04:24:54;5.00;;;2.13;;
12760;SDS011;6444;49.742;6.114;2024-03-23T04:27:21;6.83;;;2.50;;
12760;SDS011;6444;49.742;6.114;2024-03-23T04:29:51;5.27;;;2.57;;
12760;SDS011;6444;49.742;6.114;2024-03-23T04:32:14;5.20;;;2.27;;
12760;SDS011;6444;49.742;6.114;2024-03-23T04:34:41;3.97;;;2.47;;
12760;SDS011;6444;49.742;6.114;2024-03-23T04:37:08;5.43;;;2.40;;
12760;SDS011;6444;49.742;6.114;2024-03-23T04:39:38;6.57;;;2.43;;
12760;SDS011;6444;49.742;6.114;2024-03-23T04:42:04;6.50;;;2.70;;
12760;SDS011;6444;49.742;6.114;2024-03-23T04:44:31;5.80;;;2.30;;
12760;SDS011;6444;49.742;6.114;2024-03-23T04:46:58;7.53;;;3.10;;
12760;SDS011;6444;49.742;6.114;2024-03-23T04:49:25;5.93;;;3.20;;
12760;SDS011;6444;49.742;6.114;2024-03-23T04:51:51;7.47;;;3.30;;
12760;SDS011;6444;49.742;6.114;2024-03-23T04:54:19;5.70;;;3.07;;
12760;SDS011;6444;49.742;6.114;2024-03-23T04:56:45;6.47;;;2.73;;
12760;SDS011;6444;49.742;6.114;2024-03-23T04:59:12;10.03;;;4.37;;
12760;SDS011;6444;49.742;6.114;2024-03-23T05:01:39;6.23;;;3.13;;
12760;SDS011;6444;49.742;6.114;2024-03-23T05:04:06;7.30;;;3.43;;
12760;SDS011;6444;49.742;6.114;2024-03-23T05:06:32;9.93;;;4.00;;
12760;SDS011;6444;49.742;6.114;2024-03-23T05:08:59;7.77;;;3.57;;
12760;SDS011;6444;49.742;6.114;2024-03-23T05:11:26;10.87;;;3.83;;
12760;SDS011;6444;49.742;6.114;2024-03-23T05:13:53;6.70;;;2.97;;
12760;SDS011;6444;49.742;6.114;2024-03-23T05:16:20;10.93;;;4.33;;
12760;SDS011;6444;49.742;6.114;2024-03-23T05:18:46;8.80;;;3.87;;
12760;SDS011;6444;49.742;6.114;2024-03-23T05:21:14;11.13;;;4.50;;
12760;SDS011;6444;49.742;6.114;2024-03-23T05:23:40;10.63;;;4.60;;
12760;SDS011;6444;49.742;6.114;2024-03-23T05:26:07;16.43;;;6.83;;
12760;SDS011;6444;49.742;6.114;2024-03-23T05:28:34;8.73;;;4.57;;
12760;SDS011;6444;49.742;6.114;2024-03-23T05:31:01;14.27;;;6.13;;
12760;SDS011;6444;49.742;6.114;2024-03-23T05:33:28;12.67;;;5.37;;
12760;SDS011;6444;49.742;6.114;2024-03-23T05:35:58;13.57;;;5.37;;
12760;SDS011;6444;49.742;6.114;2024-03-23T05:38:24;13.97;;;5.93;;
12760;SDS011;6444;49.742;6.114;2024-03-23T05:40:54;18.48;;;8.73;;
12760;SDS011;6444;49.742;6.114;2024-03-23T05:43:21;16.33;;;8.15;;
12760;SDS011;6444;49.742;6.114;2024-03-23T05:45:56;13.67;;;6.70;;
12760;SDS011;6444;49.742;6.114;2024-03-23T05:48:23;14.20;;;5.57;;
12760;SDS011;6444;49.742;6.114;2024-03-23T05:50:49;14.80;;;5.77;;
12760;SDS011;6444;49.742;6.114;2024-03-23T05:53:16;12.17;;;5.87;;
12760;SDS011;6444;49.742;6.114;2024-03-23T05:55:43;12.77;;;5.90;;
12760;SDS011;6444;49.742;6.114;2024-03-23T05:58:09;13.53;;;6.67;;
12760;SDS011;6444;49.742;6.114;2024-03-23T06:00:37;14.43;;;7.30;;
12760;SDS011;6444;49.742;6.114;2024-03-23T06:03:03;19.83;;;8.30;;
12760;SDS011;6444;49.742;6.114;2024-03-23T06:05:31;23.10;;;9.27;;
12760;SDS011;6444;49.742;6.114;2024-03-23T06:07:57;13.77;;;7.93;;
12760;SDS011;6444;49.742;6.114;2024-03-23T06:10:24;14.70;;;8.60;;
12760;SDS011;6444;49.742;6.114;2024-03-23T06:12:51;15.80;;;8.63;;
12760;SDS011;6444;49.742;6.114;2024-03-23T06:15:21;24.23;;;8.60;;
12760;SDS011;6444;49.742;6.114;2024-03-23T06:17:48;14.67;;;8.77;;
12760;SDS011;6444;49.742;6.114;2024-03-23T06:20:14;17.43;;;9.20;;
12760;SDS011;6444;49.742;6.114;2024-03-23T06:22:41;20.73;;;10.38;;
12760;SDS011;6444;49.742;6.114;2024-03-23T06:25:08;17.20;;;10.15;;
12760;SDS011;6444;49.742;6.114;2024-03-23T06:27:34;14.90;;;8.37;;
12760;SDS011;6444;49.742;6.114;2024-03-23T06:30:01;15.43;;;9.30;;
12760;SDS011;6444;49.742;6.114;2024-03-23T06:32:28;14.40;;;8.85;;
12760;SDS011;6444;49.742;6.114;2024-03-23T06:34:54;15.90;;;7.47;;
12760;SDS011;6444;49.742;6.114;2024-03-23T06:37:21;15.30;;;7.60;;
12760;SDS011;6444;49.742;6.114;2024-03-23T06:39:47;15.23;;;7.03;;
12760;SDS011;6444;49.742;6.114;2024-03-23T06:42:14;12.57;;;6.33;;
12760;SDS011;6444;49.742;6.114;2024-03-23T06:44:41;10.97;;;7.17;;
12760;SDS011;6444;49.742;6.114;2024-03-23T06:47:08;13.43;;;8.00;;
12760;SDS011;6444;49.742;6.114;2024-03-23T06:49:35;17.47;;;9.70;;
12760;SDS011;6444;49.742;6.114;2024-03-23T06:52:01;12.87;;;7.17;;
12760;SDS011;6444;49.742;6.114;2024-03-23T06:54:28;12.43;;;7.27;;
12760;SDS011;6444;49.742;6.114;2024-03-23T06:56:55;12.13;;;6.67;;
12760;SDS011;6444;49.742;6.114;2024-03-23T06:59:22;14.90;;;7.67;;
12760;SDS011;6444;49.742;6.114;2024-03-23T07:01:48;11.43;;;7.10;;
12760;SDS011;6444;49.742;6.114;2024-03-23T07:04:16;12.53;;;7.07;;
12760;SDS011;6444;49.742;6.114;2024-03-23T07:06:43;12.60;;;7.90;;
12760;SDS011;6444;49.742;6.114;2024-03-23T07:09:09;14.63;;;7.43;;
12760;SDS011;6444;49.742;6.114;2024-03-23T07:11:36;13.40;;;7.67;;
12760;SDS011;6444;49.742;6.114;2024-03-23T07:14:03;14.87;;;7.83;;
12760;SDS011;6444;49.742;6.114;2024-03-23T07:16:30;10.65;;;6.32;;
12760;SDS011;6444;49.742;6.114;2024-03-23T07:18:56;10.73;;;6.28;;
12760;SDS011;6444;49.742;6.114;2024-03-23T07:21:23;11.48;;;6.25;;
12760;SDS011;6444;49.742;6.114;2024-03-23T07:23:50;10.85;;;5.90;;
12760;SDS011;6444;49.742;6.114;2024-03-23T07:26:16;11.45;;;6.80;;
12760;SDS011;6444;49.742;6.114;2024-03-23T07:28:43;11.48;;;5.32;;
12760;SDS011;6444;49.742;6.114;2024-03-23T07:31:11;11.73;;;5.95;;
12760;SDS011;6444;49.742;6.114;2024-03-23T07:33:40;13.48;;;7.10;;
12760;SDS011;6444;49.742;6.114;2024-03-23T07:36:04;12.50;;;7.55;;
12760;SDS011;6444;49.742;6.114;2024-03-23T07:38:31;11.73;;;6.60;;
12760;SDS011;6444;49.742;6.114;2024-03-23T07:41:06;10.18;;;5.28;;
12760;SDS011;6444;49.742;6.114;2024-03-23T07:43:38;9.18;;;5.68;;
12760;SDS011;6444;49.742;6.114;2024-03-23T07:46:02;9.38;;;5.78;;
12760;SDS011;6444;49.742;6.114;2024-03-23T07:48:28;11.10;;;5.87;;
12760;SDS011;6444;49.742;6.114;2024-03-23T07:50:58;11.68;;;6.57;;
12760;SDS011;6444;49.742;6.114;2024-03-23T07:53:25;12.65;;;5.00;;
12760;SDS011;6444;49.742;6.114;2024-03-23T07:55:55;8.57;;;5.53;;
12760;SDS011;6444;49.742;6.114;2024-03-23T07:58:21;8.38;;;5.10;;
12760;SDS011;6444;49.742;6.114;2024-03-23T08:00:47;9.93;;;5.30;;
12760;SDS011;6444;49.742;6.114;2024-03-23T08:03:14;12.98;;;5.50;;
12760;SDS011;6444;49.742;6.114;2024-03-23T08:05:41;8.83;;;5.50;;
12760;SDS011;6444;49.742;6.114;2024-03-23T08:08:07;12.23;;;7.53;;
12760;SDS011;6444;49.742;6.114;2024-03-23T08:10:34;16.85;;;10.18;;
12760;SDS011;6444;49.742;6.114;2024-03-23T08:13:01;14.55;;;9.50;;
12760;SDS011;6444;49.742;6.114;2024-03-23T08:15:29;9.30;;;4.70;;
12760;SDS011;6444;49.742;6.114;2024-03-23T08:17:54;9.60;;;4.90;;
12760;SDS011;6444;49.742;6.114;2024-03-23T08:20:21;8.65;;;4.65;;
12760;SDS011;6444;49.742;6.114;2024-03-23T08:22:48;8.80;;;3.92;;
12760;SDS011;6444;49.742;6.114;2024-03-23T08:25:15;10.02;;;4.35;;
12760;SDS011;6444;49.742;6.114;2024-03-23T08:27:41;9.73;;;4.68;;
12760;SDS011;6444;49.742;6.114;2024-03-23T08:30:08;8.35;;;4.75;;
12760;SDS011;6444;49.742;6.114;2024-03-23T08:32:36;7.90;;;3.58;;
12760;SDS011;6444;49.742;6.114;2024-03-23T08:35:02;8.02;;;3.78;;
12760;SDS011;6444;49.742;6.114;2024-03-23T08:37:32;7.22;;;3.95;;
12760;SDS011;6444;49.742;6.114;2024-03-23T08:39:55;11.68;;;6.47;;
12760;SDS011;6444;49.742;6.114;2024-03-23T08:42:22;7.75;;;4.32;;
12760;SDS011;6444;49.742;6.114;2024-03-23T08:44:49;7.65;;;3.95;;
12760;SDS011;6444;49.742;6.114;2024-03-23T08:47:15;8.15;;;3.60;;
12760;SDS011;6444;49.742;6.114;2024-03-23T08:49:44;9.77;;;4.43;;
12760;SDS011;6444;49.742;6.114;2024-03-23T08:52:09;9.82;;;4.57;;
12760;SDS011;6444;49.742;6.114;2024-03-23T08:54:36;26.05;;;18.52;;
12760;SDS011;6444;49.742;6.114;2024-03-23T08:57:02;12.57;;;7.72;;
12760;SDS011;6444;49.742;6.114;2024-03-23T08:59:29;12.77;;;8.55;;
12760;SDS011;6444;49.742;6.114;2024-03-23T09:01:56;10.07;;;5.45;;
12760;SDS011;6444;49.742;6.114;2024-03-23T09:04:23;10.90;;;5.07;;
12760;SDS011;6444;49.742;6.114;2024-03-23T09:06:50;10.50;;;4.95;;
12760;SDS011;6444;49.742;6.114;2024-03-23T09:09:20;10.73;;;4.62;;
12760;SDS011;6444;49.742;6.114;2024-03-23T09:11:46;8.68;;;4.93;;
12760;SDS011;6444;49.742;6.114;2024-03-23T09:14:13;11.82;;;4.93;;
12760;SDS011;6444;49.742;6.114;2024-03-23T09:16:40;9.27;;;4.50;;
12760;SDS011;6444;49.742;6.114;2024-03-23T09:19:06;7.80;;;4.47;;
12760;SDS011;6444;49.742;6.114;2024-03-23T09:21:33;8.77;;;5.05;;
12760;SDS011;6444;49.742;6.114;2024-03-23T09:24:00;9.43;;;4.43;;
12760;SDS011;6444;49.742;6.114;2024-03-23T09:26:26;9.50;;;4.15;;
12760;SDS011;6444;49.742;6.114;2024-03-23T09:28:54;8.35;;;3.92;;
12760;SDS011;6444;49.742;6.114;2024-03-23T09:31:20;10.27;;;3.33;;
12760;SDS011;6444;49.742;6.114;2024-03-23T09:33:47;7.18;;;3.10;;
12760;SDS011;6444;49.742;6.114;2024-03-23T09:36:14;11.93;;;8.35;;
12760;SDS011;6444;49.742;6.114;2024-03-23T09:38:41;7.60;;;4.00;;
12760;SDS011;6444;49.742;6.114;2024-03-23T09:41:08;10.23;;;4.12;;
12760;SDS011;6444;49.742;6.114;2024-03-23T09:43:34;9.75;;;2.85;;
12760;SDS011;6444;49.742;6.114;2024-03-23T09:46:02;5.72;;;3.50;;
12760;SDS011;6444;49.742;6.114;2024-03-23T09:48:29;9.15;;;3.80;;
12760;SDS011;6444;49.742;6.114;2024-03-23T09:50:55;15.50;;;10.18;;
12760;SDS011;6444;49.742;6.114;2024-03-23T09:53:23;9.95;;;4.60;;
12760;SDS011;6444;49.742;6.114;2024-03-23T09:55:50;14.05;;;6.82;;
12760;SDS011;6444;49.742;6.114;2024-03-23T09:58:17;10.32;;;4.07;;
12760;SDS011;6444;49.742;6.114;2024-03-23T10:00:43;7.12;;;3.62;;
12760;SDS011;6444;49.742;6.114;2024-03-23T10:03:10;7.75;;;3.85;;
12760;SDS011;6444;49.742;6.114;2024-03-23T10:05:37;10.82;;;4.07;;
12760;SDS011;6444;49.742;6.114;2024-03-23T10:10:43;8.35;;;4.43;;
12760;SDS011;6444;49.742;6.114;2024-03-23T10:13:10;4.47;;;2.58;;
12760;SDS011;6444;49.742;6.114;2024-03-23T10:15:36;2.92;;;1.40;;
12760;SDS011;6444;49.742;6.114;2024-03-23T10:18:19;4.55;;;1.90;;
12760;SDS011;6444;49.742;6.114;2024-03-23T10:20:52;3.77;;;2.30;;
12760;SDS011;6444;49.742;6.114;2024-03-23T10:23:37;1.70;;;1.20;;
12760;SDS011;6444;49.742;6.114;2024-03-23T10:26:16;1.70;;;1.12;;
12760;SDS011;6444;49.742;6.114;2024-03-23T10:28:57;3.30;;;0.90;;
12760;SDS011;6444;49.742;6.114;2024-03-23T10:31:23;1.63;;;1.30;;
12760;SDS011;6444;49.742;6.114;2024-03-23T10:33:50;2.15;;;0.93;;
12760;SDS011;6444;49.742;6.114;2024-03-23T10:36:17;13.18;;;11.00;;
12760;SDS011;6444;49.742;6.114;2024-03-23T10:38:43;7.75;;;6.43;;
12760;SDS011;6444;49.742;6.114;2024-03-23T10:41:10;2.30;;;1.90;;
12760;SDS011;6444;49.742;6.114;2024-03-23T10:43:37;1.00;;;0.80;;
12760;SDS011;6444;49.742;6.114;2024-03-23T10:46:03;3.07;;;1.70;;
12760;SDS011;6444;49.742;6.114;2024-03-23T10:48:30;1.55;;;1.35;;
12760;SDS011;6444;49.742;6.114;2024-03-23T10:50:56;4.05;;;2.80;;
12760;SDS011;6444;49.742;6.114;2024-03-23T10:53:25;4.40;;;2.60;;
12760;SDS011;6444;49.742;6.114;2024-03-23T10:55:50;8.63;;;5.47;;
12760;SDS011;6444;49.742;6.114;2024-03-23T10:58:17;5.43;;;2.65;;
12760;SDS011;6444;49.742;6.114;2024-03-23T11:00:46;5.37;;;2.80;;
12760;SDS011;6444;49.742;6.114;2024-03-23T11:03:32;6.30;;;3.22;;
12760;SDS011;6444;49.742;6.114;2024-03-23T11:06:02;4.37;;;2.35;;
12760;SDS011;6444;49.742;6.114;2024-03-23T11:08:35;4.57;;;2.25;;
12760;SDS011;6444;49.742;6.114;2024-03-23T11:11:20;3.42;;;1.30;;
12760;SDS011;6444;49.742;6.114;2024-03-23T11:13:49;2.58;;;1.17;;
12760;SDS011;6444;49.742;6.114;2024-03-23T11:16:16;3.30;;;0.93;;
12760;SDS011;6444;49.742;6.114;2024-03-23T11:18:51;2.78;;;1.35;;
12760;SDS011;6444;49.742;6.114;2024-03-23T11:24:27;3.10;;;1.20;;
12760;SDS011;6444;49.742;6.114;2024-03-23T11:26:53;4.50;;;1.33;;
12760;SDS011;6444;49.742;6.114;2024-03-23T11:29:20;3.57;;;1.13;;
12760;SDS011;6444;49.742;6.114;2024-03-23T11:31:47;2.35;;;1.10;;
12760;SDS011;6444;49.742;6.114;2024-03-23T11:34:17;2.75;;;1.02;;
12760;SDS011;6444;49.742;6.114;2024-03-23T11:36:47;2.17;;;1.02;;
12760;SDS011;6444;49.742;6.114;2024-03-23T11:41:50;4.40;;;1.00;;
12760;SDS011;6444;49.742;6.114;2024-03-23T11:44:16;7.72;;;3.87;;
12760;SDS011;6444;49.742;6.114;2024-03-23T11:46:43;6.30;;;4.75;;
12760;SDS011;6444;49.742;6.114;2024-03-23T11:49:22;4.37;;;3.05;;
12760;SDS011;6444;49.742;6.114;2024-03-23T11:51:51;3.72;;;1.65;;
12760;SDS011;6444;49.742;6.114;2024-03-23T11:54:21;4.03;;;1.10;;
12760;SDS011;6444;49.742;6.114;2024-03-23T11:57:03;2.05;;;0.90;;
12760;SDS011;6444;49.742;6.114;2024-03-23T11:59:38;2.17;;;0.73;;
12760;SDS011;6444;49.742;6.114;2024-03-23T12:02:07;3.10;;;0.70;;
12760;SDS011;6444;49.742;6.114;2024-03-23T12:04:34;3.33;;;0.90;;
12760;SDS011;6444;49.742;6.114;2024-03-23T12:07:13;3.40;;;1.55;;
12760;SDS011;6444;49.742;6.114;2024-03-23T12:09:42;2.55;;;1.08;;
12760;SDS011;6444;49.742;6.114;2024-03-23T12:12:10;1.55;;;0.85;;
12760;SDS011;6444;49.742;6.114;2024-03-23T12:14:36;5.55;;;1.20;;
12760;SDS011;6444;49.742;6.114;2024-03-23T12:17:09;3.37;;;1.10;;
12760;SDS011;6444;49.742;6.114;2024-03-23T12:19:38;1.55;;;0.70;;
12760;SDS011;6444;49.742;6.114;2024-03-23T12:22:05;2.97;;;1.00;;
12760;SDS011;6444;49.742;6.114;2024-03-23T12:24:32;2.62;;;0.90;;
12760;SDS011;6444;49.742;6.114;2024-03-23T12:27:02;1.90;;;0.85;;
12760;SDS011;6444;49.742;6.114;2024-03-23T12:29:29;2.12;;;1.10;;
12760;SDS011;6444;49.742;6.114;2024-03-23T12:31:55;4.30;;;1.30;;
12760;SDS011;6444;49.742;6.114;2024-03-23T12:34:22;2.92;;;1.00;;
12760;SDS011;6444;49.742;6.114;2024-03-23T12:36:48;7.65;;;5.85;;
12760;SDS011;6444;49.742;6.114;2024-03-23T12:39:15;6.00;;;2.10;;
12760;SDS011;6444;49.742;6.114;2024-03-23T12:41:42;4.22;;;1.12;;
12760;SDS011;6444;49.742;6.114;2024-03-23T12:44:08;4.32;;;1.00;;
12760;SDS011;6444;49.742;6.114;2024-03-23T12:46:35;4.35;;;1.10;;
12760;SDS011;6444;49.742;6.114;2024-03-23T12:49:01;3.70;;;1.35;;
12760;SDS011;6444;49.742;6.114;2024-03-23T12:51:29;4.28;;;1.00;;
12760;SDS011;6444;49.742;6.114;2024-03-23T12:53:55;2.70;;;1.45;;
12760;SDS011;6444;49.742;6.114;2024-03-23T12:56:22;3.92;;;1.02;;
12760;SDS011;6444;49.742;6.114;2024-03-23T12:58:49;3.20;;;0.90;;
12760;SDS011;6444;49.742;6.114;2024-03-23T13:01:15;1.45;;;0.90;;
12760;SDS011;6444;49.742;6.114;2024-03-23T13:03:46;1.12;;;0.77;;
12760;SDS011;6444;49.742;6.114;2024-03-23T13:06:13;2.70;;;0.98;;
12760;SDS011;6444;49.742;6.114;2024-03-23T13:08:39;2.15;;;0.80;;
12760;SDS011;6444;49.742;6.114;2024-03-23T13:11:09;2.78;;;0.70;;
12760;SDS011;6444;49.742;6.114;2024-03-23T13:13:33;1.45;;;0.85;;
12760;SDS011;6444;49.742;6.114;2024-03-23T13:16:00;1.98;;;0.90;;
12760;SDS011;6444;49.742;6.114;2024-03-23T13:18:27;2.65;;;0.77;;
12760;SDS011;6444;49.742;6.114;2024-03-23T13:20:53;2.50;;;1.00;;
12760;SDS011;6444;49.742;6.114;2024-03-23T13:23:20;3.17;;;1.67;;
12760;SDS011;6444;49.742;6.114;2024-03-23T13:25:55;2.22;;;1.05;;
12760;SDS011;6444;49.742;6.114;2024-03-23T13:28:20;4.68;;;2.33;;
12760;SDS011;6444;49.742;6.114;2024-03-23T13:30:52;3.22;;;1.37;;
12760;SDS011;6444;49.742;6.114;2024-03-23T13:33:16;3.35;;;1.40;;
12760;SDS011;6444;49.742;6.114;2024-03-23T13:35:52;3.92;;;1.20;;
12760;SDS011;6444;49.742;6.114;2024-03-23T13:38:18;3.25;;;1.08;;
12760;SDS011;6444;49.742;6.114;2024-03-23T13:40:55;3.00;;;0.90;;
12760;SDS011;6444;49.742;6.114;2024-03-23T13:43:21;1.35;;;0.80;;
12760;SDS011;6444;49.742;6.114;2024-03-23T13:45:47;1.10;;;0.60;;
12760;SDS011;6444;49.742;6.114;2024-03-23T13:48:14;1.35;;;0.70;;
12760;SDS011;6444;49.742;6.114;2024-03-23T13:50:41;3.85;;;1.20;;
12760;SDS011;6444;49.742;6.114;2024-03-23T13:53:09;3.97;;;1.75;;
12760;SDS011;6444;49.742;6.114;2024-03-23T13:55:45;2.72;;;0.70;;
12760;SDS011;6444;49.742;6.114;2024-03-23T13:58:05;1.33;;;0.70;;
12760;SDS011;6444;49.742;6.114;2024-03-23T14:00:32;1.90;;;0.83;;
12760;SDS011;6444;49.742;6.114;2024-03-23T14:02:59;3.73;;;0.80;;
12760;SDS011;6444;49.742;6.114;2024-03-23T14:05:26;3.43;;;1.10;;
12760;SDS011;6444;49.742;6.114;2024-03-23T14:07:52;3.00;;;0.70;;
12760;SDS011;6444;49.742;6.114;2024-03-23T14:10:20;2.20;;;0.97;;
12760;SDS011;6444;49.742;6.114;2024-03-23T14:12:47;2.10;;;1.00;;
12760;SDS011;6444;49.742;6.114;2024-03-23T14:15:13;2.27;;;1.60;;
12760;SDS011;6444;49.742;6.114;2024-03-23T14:17:40;2.40;;;1.03;;
12760;SDS011;6444;49.742;6.114;2024-03-23T14:20:07;1.73;;;1.20;;
12760;SDS011;6444;49.742;6.114;2024-03-23T14:22:33;2.70;;;1.10;;
12760;SDS011;6444;49.742;6.114;2024-03-23T14:25:00;1.13;;;0.67;;
12760;SDS011;6444;49.742;6.114;2024-03-23T14:27:30;3.07;;;1.20;;
12760;SDS011;6444;49.742;6.114;2024-03-23T14:29:57;2.37;;;1.00;;
12760;SDS011;6444;49.742;6.114;2024-03-23T14:32:24;1.47;;;1.00;;
12760;SDS011;6444;49.742;6.114;2024-03-23T14:34:54;0.80;;;0.77;;
12760;SDS011;6444;49.742;6.114;2024-03-23T14:37:22;1.10;;;0.80;;
12760;SDS011;6444;49.742;6.114;2024-03-23T14:39:48;2.10;;;1.00;;
12760;SDS011;6444;49.742;6.114;2024-03-23T14:42:15;2.73;;;0.90;;
12760;SDS011;6444;49.742;6.114;2024-03-23T14:44:42;2.80;;;0.80;;
12760;SDS011;6444;49.742;6.114;2024-03-23T14:47:09;1.10;;;0.60;;
12760;SDS011;6444;49.742;6.114;2024-03-23T14:49:36;2.23;;;0.83;;
12760;SDS011;6444;49.742;6.114;2024-03-23T14:52:03;2.33;;;0.83;;
12760;SDS011;6444;49.742;6.114;2024-03-23T14:54:30;2.43;;;0.80;;
12760;SDS011;6444;49.742;6.114;2024-03-23T14:56:56;1.43;;;0.70;;
12760;SDS011;6444;49.742;6.114;2024-03-23T14:59:23;0.93;;;0.80;;
12760;SDS011;6444;49.742;6.114;2024-03-23T15:01:50;1.77;;;1.20;;
12760;SDS011;6444;49.742;6.114;2024-03-23T15:04:16;1.30;;;1.00;;
12760;SDS011;6444;49.742;6.114;2024-03-23T15:06:43;2.07;;;1.00;;
12760;SDS011;6444;49.742;6.114;2024-03-23T15:09:10;3.30;;;0.90;;
12760;SDS011;6444;49.742;6.114;2024-03-23T15:11:37;1.73;;;0.93;;
12760;SDS011;6444;49.742;6.114;2024-03-23T15:14:03;2.27;;;1.17;;
12760;SDS011;6444;49.742;6.114;2024-03-23T15:16:31;1.13;;;0.80;;
12760;SDS011;6444;49.742;6.114;2024-03-23T15:18:57;2.33;;;1.20;;
12760;SDS011;6444;49.742;6.114;2024-03-23T15:21:24;3.00;;;0.90;;
12760;SDS011;6444;49.742;6.114;2024-03-23T15:23:51;1.93;;;1.00;;
12760;SDS011;6444;49.742;6.114;2024-03-23T15:26:18;1.10;;;0.70;;
12760;SDS011;6444;49.742;6.114;2024-03-23T15:28:48;0.80;;;0.60;;
12760;SDS011;6444;49.742;6.114;2024-03-23T15:31:23;2.20;;;0.77;;
12760;SDS011;6444;49.742;6.114;2024-03-23T15:33:50;1.40;;;0.60;;
12760;SDS011;6444;49.742;6.114;2024-03-23T15:36:17;1.52;;;0.80;;
12760;SDS011;6444;49.742;6.114;2024-03-23T15:38:44;1.23;;;0.70;;
12760;SDS011;6444;49.742;6.114;2024-03-23T15:41:11;0.77;;;0.57;;
12760;SDS011;6444;49.742;6.114;2024-03-23T15:43:37;1.60;;;0.83;;
12760;SDS011;6444;49.742;6.114;2024-03-23T15:46:04;2.57;;;0.80;;
12760;SDS011;6444;49.742;6.114;2024-03-23T15:48:31;2.37;;;0.90;;
12760;SDS011;6444;49.742;6.114;2024-03-23T15:50:58;1.40;;;1.17;;
12760;SDS011;6444;49.742;6.114;2024-03-23T15:53:27;1.13;;;0.70;;
12760;SDS011;6444;49.742;6.114;2024-03-23T15:55:57;1.80;;;1.00;;
12760;SDS011;6444;49.742;6.114;2024-03-23T15:58:20;1.48;;;1.00;;
12760;SDS011;6444;49.742;6.114;2024-03-23T16:01:00;0.93;;;0.50;;